createdAt,value
2023-03-29T00:00:47.935Z,1005.61
2023-03-29T00:01:47.950Z,1005.59
2023-03-29T00:02:48.055Z,1005.57
2023-03-29T00:03:47.993Z,1005.56
2023-03-29T00:04:47.945Z,1005.55
2023-03-29T00:05:47.898Z,1005.54
2023-03-29T00:06:47.910Z,1005.52
2023-03-29T00:07:47.833Z,1005.49
2023-03-29T00:08:47.849Z,1005.43
2023-03-29T00:09:48.177Z,1005.41
2023-03-29T00:10:47.868Z,1005.38
2023-03-29T00:11:47.786Z,1005.37
2023-03-29T00:12:47.866Z,1005.33
2023-03-29T00:13:47.810Z,1005.31
2023-03-29T00:14:47.811Z,1005.25
2023-03-29T00:15:47.813Z,1005.22
2023-03-29T00:16:47.899Z,1005.19
2023-03-29T00:17:47.802Z,1005.18
2023-03-29T00:18:47.773Z,1005.17
2023-03-29T00:19:47.753Z,1005.16
2023-03-29T00:20:47.707Z,1005.14
2023-03-29T00:21:47.778Z,1005.12
2023-03-29T00:22:47.770Z,1005.09
2023-03-29T00:23:47.766Z,1005.08
2023-03-29T00:24:47.718Z,1005.06
2023-03-29T00:25:47.743Z,1005.08
2023-03-29T00:26:47.669Z,1005.08
2023-03-29T00:27:47.711Z,1005.06
2023-03-29T00:28:47.668Z,1005.10
2023-03-29T00:29:47.690Z,1005.10
2023-03-29T00:30:47.677Z,1005.06
2023-03-29T00:31:47.645Z,1005.07
2023-03-29T00:32:47.758Z,1005.07
2023-03-29T00:33:47.620Z,1005.05
2023-03-29T00:34:47.627Z,1005.03
2023-03-29T00:35:47.620Z,1005.01
2023-03-29T00:36:47.576Z,1005.02
2023-03-29T00:37:47.568Z,1005.02
2023-03-29T00:38:47.566Z,1005.01
2023-03-29T00:39:47.553Z,1005.00
2023-03-29T00:40:47.528Z,1005.01
2023-03-29T00:41:47.559Z,1005.03
2023-03-29T00:42:47.537Z,1005.00
2023-03-29T00:43:47.545Z,1004.98
2023-03-29T00:44:47.486Z,1004.95
2023-03-29T00:45:47.541Z,1004.95
2023-03-29T00:46:47.500Z,1004.97
2023-03-29T00:47:47.459Z,1005.00
2023-03-29T00:48:47.463Z,1004.98
2023-03-29T00:49:47.459Z,1004.95
2023-03-29T00:50:47.435Z,1004.94
2023-03-29T00:51:47.426Z,1004.90
2023-03-29T00:52:47.426Z,1004.93
2023-03-29T00:53:47.409Z,1004.91
2023-03-29T00:54:47.405Z,1004.93
2023-03-29T00:55:47.393Z,1004.92
2023-03-29T00:56:47.459Z,1004.91
2023-03-29T00:57:47.377Z,1004.89
2023-03-29T00:58:47.356Z,1004.88
2023-03-29T00:59:47.343Z,1004.86
2023-03-29T01:00:47.341Z,1004.87
2023-03-29T01:01:47.394Z,1004.85
2023-03-29T01:02:47.410Z,1004.81
2023-03-29T01:03:47.383Z,1004.80
2023-03-29T01:04:47.340Z,1004.81
2023-03-29T01:05:47.286Z,1004.79
2023-03-29T01:06:47.334Z,1004.79
2023-03-29T01:07:47.244Z,1004.78
2023-03-29T01:08:47.302Z,1004.76
2023-03-29T01:09:47.235Z,1004.77
2023-03-29T01:10:47.300Z,1004.75
2023-03-29T01:11:47.218Z,1004.76
2023-03-29T01:12:47.196Z,1004.73
2023-03-29T01:13:47.186Z,1004.72
2023-03-29T01:14:47.189Z,1004.70
2023-03-29T01:15:47.175Z,1004.69
2023-03-29T01:16:47.232Z,1004.68
2023-03-29T01:17:47.268Z,1004.64
2023-03-29T01:18:47.131Z,1004.63
2023-03-29T01:19:47.136Z,1004.61
2023-03-29T01:20:47.101Z,1004.57
2023-03-29T01:21:47.124Z,1004.55
2023-03-29T01:22:47.142Z,1004.55
2023-03-29T01:23:47.086Z,1004.54
2023-03-29T01:24:47.122Z,1004.52
2023-03-29T01:25:47.057Z,1004.53
2023-03-29T01:26:47.157Z,1004.54
2023-03-29T01:27:47.064Z,1004.53
2023-03-29T01:28:47.113Z,1004.53
2023-03-29T01:29:47.024Z,1004.50
2023-03-29T01:30:47.059Z,1004.52
2023-03-29T01:31:47.077Z,1004.49
2023-03-29T01:32:46.988Z,1004.49
2023-03-29T01:33:46.989Z,1004.49
2023-03-29T01:34:46.972Z,1004.44
2023-03-29T01:35:47.027Z,1004.42
2023-03-29T01:36:46.986Z,1004.40
2023-03-29T01:37:46.944Z,1004.37
2023-03-29T01:38:46.949Z,1004.35
2023-03-29T01:39:46.926Z,1004.32
2023-03-29T01:40:46.901Z,1004.30
2023-03-29T01:41:46.902Z,1004.28
2023-03-29T01:42:46.926Z,1004.25
2023-03-29T01:43:46.873Z,1004.23
2023-03-29T01:44:46.915Z,1004.21
2023-03-29T01:45:46.909Z,1004.18
2023-03-29T01:46:46.850Z,1004.15
2023-03-29T01:47:46.867Z,1004.13
2023-03-29T01:48:46.815Z,1004.10
2023-03-29T01:49:46.836Z,1004.09
2023-03-29T01:50:46.803Z,1004.05
2023-03-29T01:51:46.788Z,1004.04
2023-03-29T01:52:46.823Z,1004.03
2023-03-29T01:53:46.802Z,1004.04
2023-03-29T01:54:46.804Z,1004.03
2023-03-29T01:55:46.773Z,1004.02
2023-03-29T01:56:46.779Z,1004.00
2023-03-29T01:57:46.767Z,1003.98
2023-03-29T01:58:46.714Z,1003.93
2023-03-29T01:59:46.708Z,1003.92
2023-03-29T02:00:46.726Z,1003.92
2023-03-29T02:01:46.743Z,1003.92
2023-03-29T02:02:46.777Z,1003.94
2023-03-29T02:03:46.726Z,1003.98
2023-03-29T02:04:46.651Z,1004.00
2023-03-29T02:05:46.673Z,1004.01
2023-03-29T02:06:46.648Z,1003.99
2023-03-29T02:07:46.672Z,1003.97
2023-03-29T02:08:46.608Z,1003.94
2023-03-29T02:09:46.616Z,1003.96
2023-03-29T02:10:46.592Z,1003.97
2023-03-29T02:11:46.623Z,1003.99
2023-03-29T02:12:46.583Z,1003.99
2023-03-29T02:13:46.588Z,1004.00
2023-03-29T02:14:46.600Z,1003.99
2023-03-29T02:15:46.571Z,1003.97
2023-03-29T02:16:46.559Z,1003.94
2023-03-29T02:17:46.585Z,1003.87
2023-03-29T02:18:46.506Z,1003.86
2023-03-29T02:19:46.530Z,1003.83
2023-03-29T02:20:46.493Z,1003.86
2023-03-29T02:21:46.484Z,1003.84
2023-03-29T02:22:46.496Z,1003.86
2023-03-29T02:23:46.457Z,1003.88
2023-03-29T02:24:46.472Z,1003.86
2023-03-29T02:25:46.451Z,1003.86
2023-03-29T02:26:46.452Z,1003.89
2023-03-29T02:27:46.451Z,1003.92
2023-03-29T02:28:46.434Z,1003.91
2023-03-29T02:29:46.409Z,1003.87
2023-03-29T02:30:46.476Z,1003.86
2023-03-29T02:31:46.394Z,1003.86
2023-03-29T02:32:46.414Z,1003.84
2023-03-29T02:33:46.363Z,1003.82
2023-03-29T02:34:46.353Z,1003.80
2023-03-29T02:35:46.362Z,1003.80
2023-03-29T02:36:46.318Z,1003.77
2023-03-29T02:37:46.351Z,1003.76
2023-03-29T02:38:46.317Z,1003.74
2023-03-29T02:39:46.314Z,1003.72
2023-03-29T02:40:46.321Z,1003.73
2023-03-29T02:41:46.283Z,1003.72
2023-03-29T02:42:46.257Z,1003.69
2023-03-29T02:43:46.339Z,1003.69
2023-03-29T02:44:46.255Z,1003.69
2023-03-29T02:45:46.233Z,1003.67
2023-03-29T02:46:46.262Z,1003.66
2023-03-29T02:47:46.268Z,1003.64
2023-03-29T02:48:46.184Z,1003.64
2023-03-29T02:49:46.201Z,1003.61
2023-03-29T02:50:46.187Z,1003.62
2023-03-29T02:51:46.182Z,1003.62
2023-03-29T02:52:46.156Z,1003.64
2023-03-29T02:53:46.141Z,1003.62
2023-03-29T02:54:46.148Z,1003.61
2023-03-29T02:55:46.151Z,1003.59
2023-03-29T02:56:46.210Z,1003.56
2023-03-29T02:57:46.295Z,1003.54
2023-03-29T02:58:46.085Z,1003.53
2023-03-29T02:59:46.108Z,1003.52
2023-03-29T03:00:46.084Z,1003.49
2023-03-29T03:01:46.162Z,1003.49
2023-03-29T03:02:46.105Z,1003.49
2023-03-29T03:03:46.334Z,1003.49
2023-03-29T03:04:46.053Z,1003.46
2023-03-29T03:05:46.039Z,1003.44
2023-03-29T03:06:46.074Z,1003.40
2023-03-29T03:07:46.042Z,1003.38
2023-03-29T03:08:45.993Z,1003.35
2023-03-29T03:09:45.979Z,1003.33
2023-03-29T03:10:46.032Z,1003.28
2023-03-29T03:11:45.980Z,1003.27
2023-03-29T03:12:46.037Z,1003.27
2023-03-29T03:13:45.932Z,1003.25
2023-03-29T03:14:46.012Z,1003.27
2023-03-29T03:15:45.917Z,1003.27
2023-03-29T03:16:45.999Z,1003.27
2023-03-29T03:17:45.976Z,1003.27
2023-03-29T03:18:45.983Z,1003.26
2023-03-29T03:19:45.896Z,1003.24
2023-03-29T03:20:45.876Z,1003.23
2023-03-29T03:21:45.963Z,1003.22
2023-03-29T03:22:45.851Z,1003.20
2023-03-29T03:23:45.882Z,1003.21
2023-03-29T03:24:45.895Z,1003.21
2023-03-29T03:25:45.853Z,1003.23
2023-03-29T03:26:45.886Z,1003.22
2023-03-29T03:27:45.828Z,1003.21
2023-03-29T03:28:45.801Z,1003.19
2023-03-29T03:31:09.667Z,1003.22
2023-03-29T03:32:10.685Z,1003.24
2023-03-29T03:33:11.333Z,1003.24
2023-03-29T03:34:10.700Z,1003.22
2023-03-29T03:35:10.650Z,1003.19
2023-03-29T03:36:10.647Z,1003.20
2023-03-29T03:37:10.664Z,1003.22
2023-03-29T03:38:10.610Z,1003.22
2023-03-29T03:39:10.813Z,1003.24
2023-03-29T03:48:12.574Z,1003.24
2023-03-29T03:49:09.984Z,1003.21
2023-03-29T03:50:09.729Z,1003.21
2023-03-29T03:52:49.373Z,1003.20
2023-03-29T03:53:50.339Z,1003.21
2023-03-29T04:49:51.866Z,1002.91
2023-03-29T04:50:53.516Z,1002.88
2023-03-29T04:51:52.578Z,1002.88
2023-03-29T04:52:52.536Z,1002.88
2023-03-29T05:29:00.213Z,1002.87
2023-03-29T05:30:01.279Z,1002.87
2023-03-29T05:31:01.568Z,1002.85
2023-03-29T05:32:01.076Z,1002.84
2023-03-29T05:33:01.048Z,1002.82
2023-03-29T05:34:00.976Z,1002.78
2023-03-29T05:35:01.037Z,1002.78
2023-03-29T05:36:01.000Z,1002.77
2023-03-29T05:37:01.018Z,1002.77
2023-03-29T05:38:01.184Z,1002.77
2023-03-29T05:39:00.980Z,1002.79
2023-03-29T05:46:13.603Z,1002.82
2023-03-29T05:47:14.377Z,1002.79
2023-03-29T05:48:14.365Z,1002.74
2023-03-29T05:49:14.342Z,1002.73
2023-03-29T05:50:14.296Z,1002.72
2023-03-29T05:51:14.224Z,1002.66
2023-03-29T05:52:14.292Z,1002.70
2023-03-29T05:53:14.214Z,1002.69
2023-03-29T05:54:14.340Z,1002.74
2023-03-29T06:05:09.388Z,1002.78
2023-03-29T06:06:10.395Z,1002.80
2023-03-29T06:07:10.365Z,1002.80
2023-03-29T06:08:10.384Z,1002.81
2023-03-29T06:09:10.290Z,1002.79
2023-03-29T06:10:10.317Z,1002.74
2023-03-29T06:11:10.442Z,1002.69
2023-03-29T06:12:10.261Z,1002.65
2023-03-29T06:13:10.296Z,1002.65
2023-03-29T06:19:17.436Z,1002.65
2023-03-29T06:20:18.680Z,1002.66
2023-03-29T06:21:29.042Z,1002.67
2023-03-29T06:22:18.116Z,1002.66
2023-03-29T06:23:18.118Z,1002.66
2023-03-29T06:24:18.220Z,1002.65
2023-03-29T06:25:18.039Z,1002.66
2023-03-29T06:26:18.084Z,1002.70
2023-03-29T06:27:18.027Z,1002.69
2023-03-29T06:28:18.030Z,1002.68
2023-03-29T06:29:18.053Z,1002.67
2023-03-29T06:30:17.993Z,1002.67
2023-03-29T06:31:18.010Z,1002.64
2023-03-29T06:32:18.015Z,1002.63
2023-03-29T06:33:17.983Z,1002.62
2023-03-29T06:34:18.004Z,1002.61
2023-03-29T06:35:17.958Z,1002.64
2023-03-29T06:36:18.014Z,1002.63
2023-03-29T06:37:17.948Z,1002.62
2023-03-29T06:38:17.926Z,1002.65
2023-03-29T06:39:17.931Z,1002.64
2023-03-29T06:40:17.984Z,1002.64
2023-03-29T06:41:17.889Z,1002.63
2023-03-29T06:42:21.619Z,1002.62
2023-03-29T06:43:17.887Z,1002.58
2023-03-29T06:44:17.865Z,1002.58
2023-03-29T06:45:17.873Z,1002.58
2023-03-29T06:46:17.927Z,1002.58
2023-03-29T06:47:17.835Z,1002.59
2023-03-29T06:48:17.887Z,1002.60
2023-03-29T06:49:17.824Z,1002.63
2023-03-29T06:50:18.122Z,1002.66
2023-03-29T06:51:17.814Z,1002.65
2023-03-29T06:52:17.808Z,1002.67
2023-03-29T06:53:17.763Z,1002.68
2023-03-29T06:54:17.819Z,1002.72
2023-03-29T06:55:17.769Z,1002.73
2023-03-29T06:56:17.827Z,1002.74
2023-03-29T06:57:19.012Z,1002.75
2023-03-29T06:58:17.733Z,1002.73
2023-03-29T06:59:17.749Z,1002.73
2023-03-29T07:00:17.708Z,1002.74
2023-03-29T07:01:17.738Z,1002.76
2023-03-29T07:02:20.600Z,1002.76
2023-03-29T07:03:17.672Z,1002.77
2023-03-29T07:04:17.831Z,1002.77
2023-03-29T07:05:18.465Z,1002.76
2023-03-29T07:06:17.656Z,1002.74
2023-03-29T07:07:17.656Z,1002.76
2023-03-29T07:08:17.622Z,1002.78
2023-03-29T07:09:19.425Z,1002.79
2023-03-29T07:10:17.682Z,1002.79
2023-03-29T07:11:17.591Z,1002.81
2023-03-29T07:12:17.576Z,1002.81
2023-03-29T07:13:17.618Z,1002.83
2023-03-29T07:14:17.930Z,1002.86
2023-03-29T07:15:17.635Z,1002.90
2023-03-29T07:16:25.160Z,1002.91
2023-03-29T07:17:17.629Z,1002.90
2023-03-29T07:18:17.556Z,1002.88
2023-03-29T07:19:17.526Z,1002.89
2023-03-29T07:20:17.517Z,1002.90
2023-03-29T07:21:17.563Z,1002.89
2023-03-29T07:22:17.487Z,1002.86
2023-03-29T07:23:17.489Z,1002.85
2023-03-29T07:24:17.461Z,1002.85
2023-03-29T07:25:17.501Z,1002.84
2023-03-29T07:26:28.388Z,1002.87
2023-03-29T07:27:17.438Z,1002.89
2023-03-29T07:28:17.425Z,1002.90
2023-03-29T07:29:17.468Z,1002.90
2023-03-29T07:30:17.434Z,1002.92
2023-03-29T07:31:17.411Z,1002.90
2023-03-29T07:32:17.450Z,1002.92
2023-03-29T07:33:17.485Z,1002.92
2023-03-29T07:34:17.371Z,1002.93
2023-03-29T07:35:17.375Z,1002.95
2023-03-29T07:36:17.383Z,1002.96
2023-03-29T07:37:17.307Z,1002.96
2023-03-29T07:38:17.360Z,1002.96
2023-03-29T07:39:17.396Z,1002.98
2023-03-29T07:40:17.302Z,1002.97
2023-03-29T07:41:17.270Z,1002.97
2023-03-29T07:42:17.293Z,1003.01
2023-03-29T07:43:17.247Z,1002.97
2023-03-29T07:44:17.290Z,1002.97
2023-03-29T07:45:17.300Z,1002.98
2023-03-29T07:46:17.274Z,1003.02
2023-03-29T07:47:17.192Z,1002.98
2023-03-29T07:48:17.326Z,1002.99
2023-03-29T07:49:17.192Z,1002.95
2023-03-29T07:50:17.199Z,1002.92
2023-03-29T07:53:35.587Z,1002.85
2023-03-29T07:54:36.569Z,1002.88
2023-03-29T07:55:36.595Z,1002.94
2023-03-29T07:56:36.533Z,1003.01
2023-03-29T07:58:57.405Z,1003.06
2023-03-29T07:59:58.360Z,1003.07
2023-03-29T08:00:58.446Z,1003.07
2023-03-29T08:01:58.350Z,1003.06
2023-03-29T08:02:58.393Z,1003.02
2023-03-29T08:03:58.495Z,1003.05
2023-03-29T08:04:58.378Z,1003.06
2023-03-29T08:05:58.319Z,1003.05
2023-03-29T08:06:58.316Z,1003.02
2023-03-29T08:07:58.277Z,1002.98
2023-03-29T08:08:58.302Z,1002.97
2023-03-29T08:09:58.277Z,1002.90
2023-03-29T08:10:58.319Z,1002.92
2023-03-29T08:11:58.268Z,1002.87
2023-03-29T08:12:58.279Z,1002.88
2023-03-29T08:13:58.226Z,1002.89
2023-03-29T08:14:58.226Z,1002.89
2023-03-29T08:15:58.234Z,1002.88
2023-03-29T08:16:58.254Z,1002.88
2023-03-29T08:17:58.230Z,1002.86
2023-03-29T08:18:58.186Z,1002.84
2023-03-29T08:19:58.251Z,1002.83
2023-03-29T08:20:58.158Z,1002.81
2023-03-29T08:21:58.160Z,1002.82
2023-03-29T08:22:58.162Z,1002.83
2023-03-29T08:23:58.164Z,1002.82
2023-03-29T08:24:58.141Z,1002.82
2023-03-29T08:25:58.085Z,1002.86
2023-03-29T08:26:58.124Z,1002.81
2023-03-29T08:27:58.083Z,1002.81
2023-03-29T08:28:58.104Z,1002.82
2023-03-29T08:29:58.069Z,1002.81
2023-03-29T08:30:58.100Z,1002.77
2023-03-29T08:31:58.053Z,1002.74
2023-03-29T08:32:58.138Z,1002.74
2023-03-29T08:33:58.031Z,1002.74
2023-03-29T08:34:58.041Z,1002.74
2023-03-29T08:35:58.036Z,1002.74
2023-03-29T08:36:57.989Z,1002.76
2023-03-29T08:37:57.994Z,1002.77
2023-03-29T08:38:58.009Z,1002.79
2023-03-29T08:39:57.969Z,1002.80
2023-03-29T08:40:57.949Z,1002.80
2023-03-29T08:41:57.938Z,1002.78
2023-03-29T08:42:57.926Z,1002.77
2023-03-29T08:43:57.915Z,1002.77
2023-03-29T08:44:57.911Z,1002.78
2023-03-29T08:45:57.958Z,1002.77
2023-03-29T08:46:57.973Z,1002.78
2023-03-29T08:47:57.927Z,1002.76
2023-03-29T08:48:57.972Z,1002.77
2023-03-29T08:49:57.859Z,1002.80
2023-03-29T08:50:57.882Z,1002.81
2023-03-29T08:51:57.845Z,1002.81
2023-03-29T08:52:57.847Z,1002.79
2023-03-29T08:53:57.831Z,1002.81
2023-03-29T08:54:57.815Z,1002.79
2023-03-29T08:55:57.790Z,1002.81
2023-03-29T08:56:57.818Z,1002.83
2023-03-29T08:57:57.768Z,1002.83
2023-03-29T08:58:57.869Z,1002.76
2023-03-29T08:59:57.755Z,1002.76
2023-03-29T09:00:57.724Z,1002.74
2023-03-29T09:01:57.739Z,1002.77
2023-03-29T09:02:57.849Z,1002.79
2023-03-29T09:03:57.808Z,1002.79
2023-03-29T09:04:57.705Z,1002.83
2023-03-29T09:05:57.672Z,1002.79
2023-03-29T09:06:57.670Z,1002.81
2023-03-29T09:07:57.648Z,1002.78
2023-03-29T09:08:57.650Z,1002.80
2023-03-29T09:09:57.626Z,1002.80
2023-03-29T09:10:57.650Z,1002.80
2023-03-29T09:11:57.637Z,1002.81
2023-03-29T09:12:57.678Z,1002.83
2023-03-29T09:13:57.616Z,1002.80
2023-03-29T09:14:57.632Z,1002.81
2023-03-29T09:15:57.631Z,1002.79
2023-03-29T09:16:57.588Z,1002.74
2023-03-29T09:17:57.562Z,1002.73
2023-03-29T09:18:57.557Z,1002.76
2023-03-29T09:19:57.574Z,1002.79
2023-03-29T09:20:57.539Z,1002.77
2023-03-29T09:21:57.506Z,1002.76
2023-03-29T09:23:00.511Z,1002.75
2023-03-29T09:23:57.480Z,1002.74
2023-03-29T09:24:57.501Z,1002.76
2023-03-29T09:25:57.483Z,1002.75
2023-03-29T09:26:57.465Z,1002.78
2023-03-29T09:27:57.445Z,1002.76
2023-03-29T09:28:57.449Z,1002.76
2023-03-29T09:29:57.464Z,1002.77
2023-03-29T09:30:57.469Z,1002.81
2023-03-29T09:31:57.433Z,1002.86
2023-03-29T09:32:57.452Z,1002.88
2023-03-29T09:33:57.392Z,1002.88
2023-03-29T09:34:57.408Z,1002.86
2023-03-29T09:35:57.408Z,1002.83
2023-03-29T09:36:57.350Z,1002.84
2023-03-29T09:37:57.414Z,1002.88
2023-03-29T09:38:57.369Z,1002.90
2023-03-29T09:39:57.318Z,1002.94
2023-03-29T09:40:57.374Z,1002.92
2023-03-29T09:41:57.342Z,1002.83
2023-03-29T09:42:57.303Z,1002.74
2023-03-29T09:43:57.295Z,1002.76
2023-03-29T09:44:57.296Z,1002.81
2023-03-29T09:45:57.300Z,1002.84
2023-03-29T09:46:57.295Z,1002.85
2023-03-29T09:47:57.276Z,1002.85
2023-03-29T09:48:57.238Z,1002.85
2023-03-29T09:49:57.215Z,1002.85
2023-03-29T09:50:57.228Z,1002.87
2023-03-29T09:51:57.202Z,1002.87
2023-03-29T09:52:57.229Z,1002.86
2023-03-29T09:53:57.173Z,1002.86
2023-03-29T09:54:57.183Z,1002.85
2023-03-29T09:55:57.205Z,1002.82
2023-03-29T09:56:57.195Z,1002.80
2023-03-29T09:57:57.156Z,1002.81
2023-03-29T09:58:57.231Z,1002.81
2023-03-29T09:59:57.137Z,1002.82
2023-03-29T10:00:57.130Z,1002.83
2023-03-29T10:01:57.099Z,1002.85
2023-03-29T10:02:57.299Z,1002.89
2023-03-29T10:03:57.209Z,1002.91
2023-03-29T10:04:57.077Z,1002.93
2023-03-29T10:05:57.068Z,1002.93
2023-03-29T10:06:57.053Z,1002.97
2023-03-29T10:07:57.058Z,1002.98
2023-03-29T10:08:57.817Z,1003.01
2023-03-29T10:09:57.007Z,1003.01
2023-03-29T10:10:57.007Z,1002.95
2023-03-29T10:11:57.049Z,1002.93
2023-03-29T10:12:57.012Z,1002.94
2023-03-29T10:13:56.992Z,1002.96
2023-03-29T10:14:56.955Z,1002.94
2023-03-29T10:15:56.954Z,1002.92
2023-03-29T10:16:57.080Z,1002.99
2023-03-29T10:17:57.052Z,1003.02
2023-03-29T10:18:56.973Z,1003.03
2023-03-29T10:19:56.945Z,1003.02
2023-03-29T10:20:56.905Z,1002.97
2023-03-29T10:21:56.887Z,1002.96
2023-03-29T10:22:56.901Z,1002.95
2023-03-29T10:23:56.888Z,1002.92
2023-03-29T10:24:56.868Z,1002.97
2023-03-29T10:25:56.945Z,1002.99
2023-03-29T10:26:56.832Z,1003.00
2023-03-29T10:27:56.829Z,1002.98
2023-03-29T10:28:56.850Z,1002.93
2023-03-29T10:29:56.960Z,1002.90
2023-03-29T10:30:56.822Z,1002.88
2023-03-29T10:31:56.878Z,1002.81
2023-03-29T10:32:56.936Z,1002.80
2023-03-29T10:33:56.841Z,1002.79
2023-03-29T10:34:56.743Z,1002.82
2023-03-29T10:35:56.792Z,1002.79
2023-03-29T10:36:56.750Z,1002.78
2023-03-29T10:37:56.716Z,1002.78
2023-03-29T10:38:56.723Z,1002.76
2023-03-29T10:39:56.715Z,1002.76
2023-03-29T10:40:56.813Z,1002.74
2023-03-29T10:41:56.690Z,1002.70
2023-03-29T10:42:56.660Z,1002.69
2023-03-29T10:43:56.676Z,1002.67
2023-03-29T10:44:56.730Z,1002.67
2023-03-29T10:45:56.677Z,1002.67
2023-03-29T10:46:56.666Z,1002.72
2023-03-29T10:47:56.674Z,1002.73
2023-03-29T10:48:56.689Z,1002.72
2023-03-29T10:49:57.118Z,1002.73
2023-03-29T10:50:56.592Z,1002.71
2023-03-29T10:51:56.604Z,1002.72
2023-03-29T10:52:56.587Z,1002.73
2023-03-29T10:53:56.571Z,1002.76
2023-03-29T10:54:56.608Z,1002.78
2023-03-29T10:55:56.576Z,1002.79
2023-03-29T10:56:56.553Z,1002.81
2023-03-29T10:57:56.538Z,1002.77
2023-03-29T10:58:56.523Z,1002.69
2023-03-29T10:59:56.493Z,1002.63
2023-03-29T11:00:56.520Z,1002.58
2023-03-29T11:01:56.565Z,1002.61
2023-03-29T11:02:56.539Z,1002.59
2023-03-29T11:03:56.688Z,1002.67
2023-03-29T11:04:56.507Z,1002.66
2023-03-29T11:05:56.445Z,1002.70
2023-03-29T11:06:56.461Z,1002.67
2023-03-29T11:07:56.429Z,1002.60
2023-03-29T11:08:56.440Z,1002.59
2023-03-29T11:09:56.424Z,1002.63
2023-03-29T11:10:56.364Z,1002.65
2023-03-29T11:12:08.255Z,1002.64
2023-03-29T11:12:56.371Z,1002.66
2023-03-29T11:13:58.698Z,1002.62
2023-03-29T11:14:56.339Z,1002.61
2023-03-29T11:15:56.420Z,1002.56
2023-03-29T11:16:56.315Z,1002.55
2023-03-29T11:17:56.387Z,1002.54
2023-03-29T11:18:56.327Z,1002.53
2023-03-29T11:19:56.303Z,1002.55
2023-03-29T11:20:56.276Z,1002.52
2023-03-29T11:21:56.290Z,1002.51
2023-03-29T11:22:56.244Z,1002.46
2023-03-29T11:23:56.245Z,1002.41
2023-03-29T11:24:56.302Z,1002.42
2023-03-29T11:25:56.232Z,1002.42
2023-03-29T11:26:56.296Z,1002.44
2023-03-29T11:27:56.244Z,1002.47
2023-03-29T11:28:56.199Z,1002.44
2023-03-29T11:29:56.208Z,1002.41
2023-03-29T11:30:56.201Z,1002.46
2023-03-29T11:31:56.208Z,1002.38
2023-03-29T11:32:56.256Z,1002.43
2023-03-29T11:33:56.139Z,1002.45
2023-03-29T11:34:56.119Z,1002.48
2023-03-29T11:35:56.304Z,1002.50
2023-03-29T11:36:56.096Z,1002.46
2023-03-29T11:37:57.376Z,1002.46
2023-03-29T11:38:56.147Z,1002.41
2023-03-29T11:39:56.121Z,1002.39
2023-03-29T11:40:56.041Z,1002.43
2023-03-29T11:41:56.070Z,1002.43
2023-03-29T11:42:56.057Z,1002.43
2023-03-29T11:43:56.703Z,1002.41
2023-03-29T11:44:56.037Z,1002.40
2023-03-29T11:45:56.135Z,1002.41
2023-03-29T11:46:56.034Z,1002.41
2023-03-29T11:47:56.023Z,1002.40
2023-03-29T11:48:56.022Z,1002.39
2023-03-29T11:49:56.001Z,1002.40
2023-03-29T11:50:55.975Z,1002.42
2023-03-29T11:51:55.969Z,1002.42
2023-03-29T11:54:19.527Z,1002.47
2023-03-29T11:55:20.528Z,1002.44
2023-03-29T11:56:20.478Z,1002.44
2023-03-29T11:57:20.596Z,1002.44
2023-03-29T11:58:20.436Z,1002.42
2023-03-29T11:59:20.442Z,1002.38
2023-03-29T12:00:20.458Z,1002.37
2023-03-29T12:01:20.436Z,1002.36
2023-03-29T12:02:20.519Z,1002.34
2023-03-29T12:03:20.516Z,1002.36
2023-03-29T12:04:20.491Z,1002.32
2023-03-29T12:05:20.385Z,1002.35
2023-03-29T12:06:20.409Z,1002.30
2023-03-29T12:07:20.367Z,1002.30
2023-03-29T12:08:20.355Z,1002.27
2023-03-29T12:09:29.457Z,1002.25
2023-03-29T12:10:20.339Z,1002.22
2023-03-29T12:11:20.348Z,1002.18
2023-03-29T12:12:20.308Z,1002.14
2023-03-29T12:13:20.340Z,1002.11
2023-03-29T12:14:20.444Z,1002.12
2023-03-29T12:15:20.397Z,1002.10
2023-03-29T12:16:20.316Z,1002.10
2023-03-29T12:17:20.259Z,1002.09
2023-03-29T12:18:20.249Z,1002.07
2023-03-29T12:19:20.233Z,1002.07
2023-03-29T12:20:20.214Z,1002.05
2023-03-29T12:21:20.255Z,1002.04
2023-03-29T12:22:20.316Z,1002.04
2023-03-29T12:23:20.243Z,1002.04
2023-03-29T12:26:36.133Z,1002.03
2023-03-29T12:27:36.979Z,1002.02
2023-03-29T12:28:36.972Z,1002.05
2023-03-29T12:29:38.431Z,1002.08
2023-03-29T12:30:36.946Z,1002.09
2023-03-29T12:31:37.080Z,1002.12
2023-03-29T12:32:36.971Z,1002.15
2023-03-29T12:33:36.931Z,1002.16
2023-03-29T12:34:36.931Z,1002.15
2023-03-29T12:35:36.950Z,1002.15
2023-03-29T12:36:36.888Z,1002.16
2023-03-29T12:37:36.880Z,1002.13
2023-03-29T12:38:36.843Z,1002.11
2023-03-29T12:39:36.880Z,1002.12
2023-03-29T12:40:36.833Z,1002.11
2023-03-29T12:41:36.850Z,1002.09
2023-03-29T12:42:36.838Z,1002.07
2023-03-29T12:43:36.802Z,1002.04
2023-03-29T12:44:37.414Z,1002.05
2023-03-29T12:45:37.008Z,1002.06
2023-03-29T12:46:36.785Z,1002.06
2023-03-29T12:47:36.914Z,1002.08
2023-03-29T12:48:36.911Z,1002.09
2023-03-29T12:49:36.839Z,1002.08
2023-03-29T12:50:36.743Z,1002.09
2023-03-29T12:51:36.881Z,1002.09
2023-03-29T12:52:36.729Z,1002.09
2023-03-29T12:53:36.757Z,1002.07
2023-03-29T12:54:36.721Z,1002.05
2023-03-29T12:55:36.755Z,1002.05
2023-03-29T12:56:36.699Z,1002.01
2023-03-29T12:57:36.678Z,1002.00
2023-03-29T12:58:36.695Z,1001.98
2023-03-29T12:59:37.646Z,1001.97
2023-03-29T13:00:36.743Z,1001.93
2023-03-29T13:01:36.740Z,1001.91
2023-03-29T13:02:36.720Z,1001.90
2023-03-29T13:03:36.644Z,1001.89
2023-03-29T13:04:37.334Z,1001.90
2023-03-29T13:05:36.670Z,1001.91
2023-03-29T13:06:36.579Z,1001.90
2023-03-29T13:07:36.566Z,1001.91
2023-03-29T13:08:36.576Z,1001.91
2023-03-29T13:09:36.565Z,1001.93
2023-03-29T13:10:36.506Z,1001.94
2023-03-29T13:11:36.594Z,1001.94
2023-03-29T13:12:36.536Z,1001.94
2023-03-29T13:13:36.928Z,1001.92
2023-03-29T13:14:36.493Z,1001.94
2023-03-29T13:15:36.492Z,1001.96
2023-03-29T13:16:36.474Z,1001.95
2023-03-29T13:17:37.477Z,1001.97
2023-03-29T13:18:36.516Z,1001.96
2023-03-29T13:19:36.477Z,1001.95
2023-03-29T13:20:36.406Z,1001.95
2023-03-29T13:21:36.454Z,1001.93
2023-03-29T13:22:36.379Z,1001.94
2023-03-29T13:23:36.447Z,1001.93
2023-03-29T13:24:36.372Z,1001.94
2023-03-29T13:25:36.358Z,1001.94
2023-03-29T13:26:36.381Z,1001.91
2023-03-29T13:27:36.362Z,1001.91
2023-03-29T13:28:36.330Z,1001.92
2023-03-29T13:29:36.521Z,1001.91
2023-03-29T13:30:36.295Z,1001.88
2023-03-29T13:31:36.436Z,1001.85
2023-03-29T13:32:45.383Z,1001.82
2023-03-29T13:33:36.288Z,1001.78
2023-03-29T13:36:02.004Z,1001.70
2023-03-29T13:37:02.759Z,1001.67
2023-03-29T13:38:02.761Z,1001.65
2023-03-29T13:39:02.658Z,1001.62
2023-03-29T13:40:02.688Z,1001.63
2023-03-29T13:41:03.235Z,1001.60
2023-03-29T13:49:06.772Z,1001.39
2023-03-29T13:50:07.857Z,1001.40
2023-03-29T13:51:07.960Z,1001.37
2023-03-29T13:52:07.886Z,1001.34
2023-03-29T13:53:07.770Z,1001.32
2023-03-29T13:54:07.746Z,1001.29
2023-03-29T13:57:23.168Z,1001.33
2023-03-29T13:58:24.245Z,1001.33
2023-03-29T13:59:24.069Z,1001.32
2023-03-29T14:00:24.065Z,1001.32
2023-03-29T14:01:24.141Z,1001.28
2023-03-29T14:02:24.137Z,1001.26
2023-03-29T14:03:24.052Z,1001.27
2023-03-29T14:04:23.996Z,1001.28
2023-03-29T14:05:24.046Z,1001.28
2023-03-29T14:06:23.983Z,1001.23
2023-03-29T14:07:24.037Z,1001.18
2023-03-29T14:08:23.970Z,1001.17
2023-03-29T14:10:48.024Z,1001.16
2023-03-29T14:11:49.008Z,1001.15
2023-03-29T14:12:48.986Z,1001.14
2023-03-29T14:13:49.008Z,1001.13
2023-03-29T14:14:58.731Z,1001.14
2023-03-29T14:15:48.954Z,1001.12
2023-03-29T14:16:48.950Z,1001.09
2023-03-29T14:17:48.954Z,1001.04
2023-03-29T14:18:48.964Z,1000.98
2023-03-29T14:19:48.892Z,1000.95
2023-03-29T14:20:48.887Z,1000.89
2023-03-29T14:21:48.928Z,1000.89
2023-03-29T14:22:48.893Z,1000.88
2023-03-29T14:23:48.869Z,1000.86
2023-03-29T14:24:48.823Z,1000.84
2023-03-29T14:25:48.817Z,1000.85
2023-03-29T14:26:48.840Z,1000.86
2023-03-29T14:27:48.809Z,1000.82